South Boardman, Michigan
Current Conditions -  °F | °C
As of 8:53 AM on Saturday 25 Oct 2014 (Local Time) from KTVC Reporting Station
Few Clouds Few Clouds  
Wind Chill: 55°   Ceiling: Unl
Heat Index: 55°   Visibility: 7mi
Dew Point: 50°   Wind: 9mph
Humidity: 83%   Direction: 250°WSW
Pressure: 29.74"   Gusts: NA
Location:  44.64°N, 85.28°W
Report Text: KTVC 251253Z 25008KT 7SM FEW018 13/10 A2974 RMK AO2 SLP073 T01280100
Loading
Personal Weather Stations






























Interactive Weather Map
Tropical Storm Tracking
New forecast layout! Learn more

10-Day Weather Forecast

Advertisements
Track Severe Weather on mobile